createdAt,value
2023-02-25T00:00:39.307Z,100359.81
2023-02-25T00:03:06.986Z,100346.63
2023-02-25T00:05:34.674Z,100350.81
2023-02-25T00:08:02.364Z,100350.66
2023-02-25T00:10:30.100Z,100360.22
2023-02-25T00:13:08.899Z,100351.66
2023-02-25T00:15:46.317Z,100358.75
2023-02-25T00:18:14.001Z,100361.50
2023-02-25T00:20:42.289Z,100364.22
2023-02-25T00:23:10.123Z,100370.28
2023-02-25T00:25:37.973Z,100360.81
2023-02-25T00:28:06.413Z,100363.44
2023-02-25T00:30:34.412Z,100365.13
2023-02-25T00:33:03.964Z,100360.81
2023-02-25T00:35:31.592Z,100361.66
2023-02-25T00:38:13.758Z,100370.34
2023-02-25T00:40:42.944Z,100366.72
2023-02-25T00:43:10.731Z,100367.34
2023-02-25T00:45:39.531Z,100377.09
2023-02-25T00:48:08.863Z,100372.06
2023-02-25T00:50:36.917Z,100373.06
2023-02-25T00:53:04.641Z,100384.47
2023-02-25T00:55:33.377Z,100374.41
2023-02-25T00:58:01.992Z,100390.75
2023-02-25T01:00:30.477Z,100384.69
2023-02-25T01:02:59.328Z,100390.00
2023-02-25T01:05:28.439Z,100390.94
2023-02-25T01:07:56.174Z,100390.00
2023-02-25T01:10:23.907Z,100394.31
2023-02-25T01:12:51.627Z,100395.91
2023-02-25T01:15:19.476Z,100401.13
2023-02-25T01:17:47.172Z,100404.69
2023-02-25T01:20:19.790Z,100413.38
2023-02-25T01:22:49.060Z,100406.38
2023-02-25T01:25:17.654Z,100409.63
2023-02-25T01:27:45.647Z,100401.75
2023-02-25T01:30:13.817Z,100410.66
2023-02-25T01:32:41.675Z,100405.31
2023-02-25T01:35:09.893Z,100407.94
2023-02-25T01:37:37.600Z,100414.00
2023-02-25T01:40:08.174Z,100408.97
2023-02-25T01:42:35.884Z,100402.91
2023-02-25T01:45:25.959Z,100410.56
2023-02-25T01:47:57.553Z,100408.78
2023-02-25T01:50:28.516Z,100409.81
2023-02-25T01:52:58.420Z,100422.91
2023-02-25T01:55:27.597Z,100417.88
2023-02-25T01:57:55.354Z,100414.13
2023-02-25T02:00:23.862Z,100407.00
2023-02-25T02:02:51.666Z,100410.56
2023-02-25T02:05:19.530Z,100406.09
2023-02-25T02:07:48.306Z,100400.84
2023-02-25T02:10:15.926Z,100404.22
2023-02-25T02:12:47.586Z,100403.53
2023-02-25T02:15:16.389Z,100413.75
2023-02-25T02:17:47.686Z,100404.94
2023-02-25T02:20:20.502Z,100405.69
2023-02-25T02:22:57.986Z,100406.50
2023-02-25T02:26:16.845Z,100407.31
2023-02-25T02:28:59.589Z,100403.84
2023-02-25T02:31:45.190Z,100396.88
2023-02-25T02:34:20.933Z,100407.34
2023-02-25T02:36:57.389Z,100411.75
2023-02-25T02:39:27.663Z,100406.47
2023-02-25T02:42:00.692Z,100404.69
2023-02-25T02:44:32.115Z,100394.25
2023-02-25T02:47:04.798Z,100398.41
2023-02-25T02:49:37.367Z,100396.84
2023-02-25T02:52:06.943Z,100387.34
2023-02-25T02:54:36.854Z,100389.97
2023-02-25T02:57:06.268Z,100396.88
2023-02-25T02:59:36.280Z,100397.09
2023-02-25T03:02:08.723Z,100397.19
2023-02-25T03:04:39.468Z,100393.75
2023-02-25T03:07:09.598Z,100399.81
2023-02-25T03:09:40.948Z,100396.34
2023-02-25T03:12:08.684Z,100395.69
2023-02-25T03:14:37.554Z,100406.09
2023-02-25T03:17:09.975Z,100409.63
2023-02-25T03:19:41.238Z,100412.16
2023-02-25T03:22:11.340Z,100399.81
2023-02-25T03:24:43.116Z,100399.91
2023-02-25T03:27:25.824Z,100409.97
2023-02-25T03:29:54.572Z,100410.78
2023-02-25T03:32:24.104Z,100412.56
2023-02-25T03:34:52.422Z,100423.06
2023-02-25T03:37:22.995Z,100424.81
2023-02-25T03:39:55.575Z,100430.06
2023-02-25T03:42:28.912Z,100444.81
2023-02-25T03:44:59.419Z,100438.78
2023-02-25T03:47:29.764Z,100440.50
2023-02-25T03:49:59.415Z,100443.13
2023-02-25T03:52:28.644Z,100442.94
2023-02-25T03:54:58.775Z,100447.13
2023-02-25T03:57:29.490Z,100452.28
2023-02-25T03:59:57.354Z,100445.34
2023-02-25T04:02:26.575Z,100449.75
2023-02-25T04:04:55.667Z,100447.06
2023-02-25T04:07:23.333Z,100450.31
2023-02-25T04:09:51.035Z,100455.44
2023-02-25T04:12:18.767Z,100444.97
2023-02-25T04:14:46.575Z,100442.44
2023-02-25T04:17:14.315Z,100445.91
2023-02-25T04:19:41.954Z,100451.97
2023-02-25T04:22:11.059Z,100453.75
2023-02-25T04:24:38.698Z,100464.22
2023-02-25T04:27:06.395Z,100467.78
2023-02-25T04:29:34.200Z,100474.72
2023-02-25T04:32:02.029Z,100471.16
2023-02-25T04:34:29.764Z,100477.44
2023-02-25T04:36:57.411Z,100468.72
2023-02-25T04:39:26.533Z,100466.28
2023-02-25T04:41:54.214Z,100469.00
2023-02-25T04:44:21.866Z,100466.38
2023-02-25T04:46:51.858Z,100477.69
2023-02-25T04:49:21.156Z,100479.56
2023-02-25T04:51:49.495Z,100476.97
2023-02-25T04:54:18.454Z,100480.53
2023-02-25T04:56:48.227Z,100470.19
2023-02-25T04:59:16.110Z,100478.97
2023-02-25T05:01:44.536Z,100486.09
2023-02-25T05:04:12.235Z,100482.75
2023-02-25T05:06:40.216Z,100483.75
2023-02-25T05:09:10.302Z,100477.66
2023-02-25T05:11:38.189Z,100477.78
2023-02-25T05:14:07.216Z,100470.13
2023-02-25T05:16:34.888Z,100475.47
2023-02-25T05:19:02.636Z,100486.66
2023-02-25T05:21:30.435Z,100486.66
2023-02-25T05:23:58.186Z,100482.28
2023-02-25T05:26:26.431Z,100486.66
2023-02-25T05:28:55.342Z,100494.50
2023-02-25T05:31:25.941Z,100490.22
2023-02-25T05:33:53.996Z,100491.22
2023-02-25T05:36:22.813Z,100489.66
2023-02-25T05:38:54.121Z,100502.53
2023-02-25T05:41:22.093Z,100497.31
2023-02-25T05:43:49.823Z,100513.00
2023-02-25T05:46:17.595Z,100506.75
2023-02-25T05:48:47.079Z,100506.75
2023-02-25T05:51:16.925Z,100511.91
2023-02-25T05:53:45.174Z,100515.34
2023-02-25T05:56:14.679Z,100508.25
2023-02-25T05:58:42.548Z,100512.53
2023-02-25T06:01:11.505Z,100507.59
2023-02-25T06:03:39.287Z,100530.97
2023-02-25T06:06:10.780Z,100521.44
2023-02-25T06:08:38.867Z,100523.31
2023-02-25T06:11:07.344Z,100531.25
2023-02-25T06:13:35.962Z,100535.66
2023-02-25T06:16:04.475Z,100526.88
2023-02-25T06:18:37.063Z,100533.78
2023-02-25T06:21:06.961Z,100532.09
2023-02-25T06:23:37.124Z,100545.94
2023-02-25T06:26:05.914Z,100553.03
2023-02-25T06:28:33.762Z,100556.66
2023-02-25T06:31:01.936Z,100569.75
2023-02-25T06:33:30.770Z,100577.53
2023-02-25T06:35:59.051Z,100575.66
2023-02-25T06:38:26.823Z,100575.47
2023-02-25T06:40:55.939Z,100586.03
2023-02-25T06:43:23.585Z,100584.53
2023-02-25T06:45:51.317Z,100588.91
2023-02-25T06:48:19.012Z,100585.44
2023-02-25T06:50:46.728Z,100589.78
2023-02-25T06:53:14.540Z,100592.47
2023-02-25T06:55:42.203Z,100590.03
2023-02-25T06:58:11.352Z,100593.41
2023-02-25T07:00:43.179Z,100594.16
2023-02-25T07:03:12.238Z,100599.38
2023-02-25T07:05:39.924Z,100591.38
2023-02-25T07:08:07.787Z,100605.19
2023-02-25T07:10:35.793Z,100603.50
2023-02-25T07:13:03.431Z,100607.91
2023-02-25T07:15:32.550Z,100613.97
2023-02-25T07:18:00.295Z,100612.31
2023-02-25T07:20:27.957Z,100627.81
2023-02-25T07:22:55.672Z,100628.59
2023-02-25T07:25:23.537Z,100627.66
2023-02-25T07:27:51.255Z,100630.28
2023-02-25T07:30:19.327Z,100645.97
2023-02-25T07:32:48.616Z,100643.25
2023-02-25T07:35:16.510Z,100648.41
2023-02-25T07:37:44.524Z,100654.56
2023-02-25T07:40:13.950Z,100657.38
2023-02-25T07:42:42.229Z,100659.22
2023-02-25T07:45:11.385Z,100661.00
2023-02-25T07:47:39.356Z,100678.31
2023-02-25T07:50:12.661Z,100677.47
2023-02-25T07:52:40.646Z,100671.38
2023-02-25T07:55:09.262Z,100680.00
2023-02-25T07:57:36.883Z,100679.22
2023-02-25T08:00:10.297Z,100690.63
2023-02-25T08:02:38.300Z,100686.19
2023-02-25T08:05:07.177Z,100699.28
2023-02-25T08:07:36.376Z,100703.91
2023-02-25T08:10:04.428Z,100699.97
2023-02-25T08:12:32.232Z,100695.16
2023-02-25T08:15:02.057Z,100698.03
2023-02-25T08:17:32.531Z,100700.50
2023-02-25T08:20:00.222Z,100701.34
2023-02-25T08:22:27.901Z,100710.78
2023-02-25T08:24:56.998Z,100716.69
2023-02-25T08:27:24.702Z,100721.75
2023-02-25T08:29:52.360Z,100724.44
2023-02-25T08:32:20.346Z,100726.13
2023-02-25T08:34:50.627Z,100716.50
2023-02-25T08:37:18.377Z,100703.41
2023-02-25T08:39:46.230Z,100710.25
2023-02-25T08:42:18.873Z,100722.84
2023-02-25T08:44:46.615Z,100715.72
2023-02-25T08:47:14.318Z,100718.91
2023-02-25T08:49:41.932Z,100734.38
2023-02-25T08:52:11.826Z,100739.44
2023-02-25T08:54:39.553Z,100731.50
2023-02-25T08:57:07.236Z,100729.84
2023-02-25T08:59:36.829Z,100734.88
2023-02-25T09:02:06.296Z,100749.47
2023-02-25T09:04:34.919Z,100750.41
2023-02-25T09:07:03.252Z,100749.47
2023-02-25T09:09:31.899Z,100760.72
2023-02-25T09:11:59.590Z,100765.94
2023-02-25T09:14:27.305Z,100767.63
2023-02-25T09:16:56.439Z,100768.38
2023-02-25T09:19:24.363Z,100781.78
2023-02-25T09:21:52.076Z,100780.22
2023-02-25T09:24:20.088Z,100784.09
2023-02-25T09:26:48.034Z,100781.38
2023-02-25T09:29:15.845Z,100790.16
2023-02-25T09:31:43.731Z,100787.28
2023-02-25T09:34:14.517Z,100787.94
2023-02-25T09:36:42.807Z,100789.25
2023-02-25T09:39:10.654Z,100789.66
2023-02-25T09:41:43.964Z,100797.16
2023-02-25T09:44:15.405Z,100802.28
2023-02-25T09:46:47.515Z,100799.03
2023-02-25T09:49:21.743Z,100801.06
2023-02-25T09:51:53.037Z,100800.31
2023-02-25T09:54:24.336Z,100807.50
2023-02-25T09:56:54.060Z,100806.50
2023-02-25T09:59:22.302Z,100811.56
2023-02-25T10:01:53.119Z,100814.09
2023-02-25T10:04:31.974Z,100807.84
2023-02-25T10:07:04.504Z,100822.78
2023-02-25T10:09:38.003Z,100829.66
2023-02-25T10:12:10.107Z,100832.16
2023-02-25T10:14:53.144Z,100831.81
2023-02-25T10:17:27.194Z,100815.69
2023-02-25T10:20:31.498Z,100850.09
2023-02-25T10:23:05.030Z,100855.03
2023-02-25T10:25:36.456Z,100858.97
2023-02-25T10:28:07.547Z,100862.19
2023-02-25T10:30:39.430Z,100842.63
2023-02-25T10:33:14.802Z,100856.28
2023-02-25T10:35:44.038Z,100853.84
2023-02-25T10:38:12.761Z,100871.91
2023-02-25T10:40:41.159Z,100865.34
2023-02-25T10:43:20.069Z,100887.41
2023-02-25T10:45:48.638Z,100881.88
2023-02-25T10:48:22.077Z,100890.22
2023-02-25T10:51:05.686Z,100881.88
2023-02-25T10:53:34.039Z,100890.00
2023-02-25T10:56:02.748Z,100890.69
2023-02-25T10:58:37.578Z,100895.53
2023-02-25T11:01:09.435Z,100890.69
2023-02-25T11:03:47.190Z,100893.31
2023-02-25T11:06:22.749Z,100906.13
2023-02-25T11:08:51.246Z,100908.84
2023-02-25T11:11:22.156Z,100914.47
2023-02-25T11:14:02.309Z,100917.78
2023-02-25T11:16:31.199Z,100915.78
2023-02-25T11:19:01.209Z,100915.06
2023-02-25T11:21:33.769Z,100927.41
2023-02-25T11:24:03.626Z,100928.66
2023-02-25T11:26:34.355Z,100936.59
2023-02-25T11:29:04.045Z,100930.44
2023-02-25T11:31:35.527Z,100938.09
2023-02-25T11:34:07.018Z,100921.50
2023-02-25T11:36:38.176Z,100926.75
2023-02-25T11:39:14.904Z,100921.16
2023-02-25T11:41:44.057Z,100923.09
2023-02-25T11:44:24.176Z,100930.13
2023-02-25T11:46:58.583Z,100933.59
2023-02-25T11:49:34.254Z,100942.78
2023-02-25T11:52:07.520Z,100947.31
2023-02-25T11:54:41.537Z,100942.22
2023-02-25T11:57:12.654Z,100934.72
2023-02-25T11:59:45.232Z,100953.50
2023-02-25T12:02:23.962Z,100945.31
2023-02-25T12:05:23.982Z,100945.97
2023-02-25T12:08:13.020Z,100947.38
2023-02-25T12:11:14.111Z,100948.63
2023-02-25T12:13:57.402Z,100953.06
2023-02-25T12:17:03.120Z,100949.50
2023-02-25T12:20:10.035Z,100950.66
2023-02-25T12:22:53.484Z,100957.97
2023-02-25T12:25:31.951Z,100960.06
2023-02-25T12:28:17.130Z,100963.81
2023-02-25T12:31:12.291Z,100962.00
2023-02-25T12:34:13.257Z,100964.84
2023-02-25T12:36:57.049Z,100973.25
2023-02-25T12:39:46.491Z,100959.66
2023-02-25T12:42:27.130Z,100968.75
2023-02-25T12:45:10.373Z,100962.47
2023-02-25T12:47:47.756Z,100989.69
2023-02-25T12:50:38.888Z,100991.94
2023-02-25T12:53:21.037Z,100992.59
2023-02-25T12:56:19.983Z,100990.63
2023-02-25T12:59:01.285Z,100981.25
2023-02-25T13:01:44.016Z,100994.28
2023-02-25T13:04:28.280Z,100999.06
2023-02-25T13:07:31.812Z,101001.94
2023-02-25T13:10:07.143Z,101001.47
2023-02-25T13:12:53.253Z,101002.13
2023-02-25T13:15:27.014Z,100998.00
2023-02-25T13:18:19.018Z,101002.34
2023-02-25T13:21:16.305Z,101014.59
2023-02-25T13:24:06.970Z,101012.84
2023-02-25T13:26:46.791Z,101016.22
2023-02-25T13:29:24.369Z,101006.66
2023-02-25T13:32:02.196Z,101019.31
2023-02-25T13:34:36.980Z,101025.88
2023-02-25T13:37:24.656Z,101019.13
2023-02-25T13:40:05.240Z,101033.41
2023-02-25T13:42:51.639Z,101026.00
2023-02-25T13:45:42.283Z,101025.88
2023-02-25T13:48:41.143Z,101038.06
2023-02-25T13:51:24.562Z,101028.50
2023-02-25T13:54:07.818Z,101032.47
2023-02-25T13:56:51.353Z,101022.69
2023-02-25T13:59:32.210Z,101033.19
2023-02-25T14:02:17.952Z,101014.06
2023-02-25T14:05:05.936Z,101032.81
2023-02-25T14:07:50.403Z,101033.56
2023-02-25T14:10:34.549Z,101046.13
2023-02-25T14:13:21.717Z,101051.59
2023-02-25T14:15:59.307Z,101051.50
2023-02-25T14:18:37.848Z,101056.47
2023-02-25T14:21:32.340Z,101058.25
2023-02-25T14:24:02.926Z,101060.78
2023-02-25T14:26:37.371Z,101066.16
2023-02-25T14:29:15.382Z,101064.34
2023-02-25T14:31:55.971Z,101065.84
2023-02-25T14:34:31.786Z,101074.50
2023-02-25T14:37:09.818Z,101085.19
2023-02-25T14:39:46.310Z,101072.25
2023-02-25T14:42:24.960Z,101060.03
2023-02-25T14:44:57.502Z,101088.69
2023-02-25T14:47:29.360Z,101073.94
2023-02-25T14:50:00.374Z,101088.28
2023-02-25T14:52:40.117Z,101087.81
2023-02-25T14:56:26.008Z,101092.69
2023-02-25T14:59:36.085Z,101099.56
2023-02-25T15:02:31.335Z,101111.91
2023-02-25T15:05:12.319Z,101107.69
2023-02-25T15:07:55.732Z,101102.66
2023-02-25T15:10:31.551Z,101109.59
2023-02-25T15:13:30.445Z,101121.78
2023-02-25T15:16:41.199Z,101124.19
2023-02-25T15:19:37.944Z,101123.91
2023-02-25T15:22:22.399Z,101143.78
2023-02-25T15:24:51.143Z,101138.22
2023-02-25T15:27:47.961Z,101137.03
2023-02-25T15:30:17.989Z,101129.94
2023-02-25T15:33:07.894Z,101145.69
2023-02-25T15:35:58.468Z,101156.72
2023-02-25T15:38:47.020Z,101151.91
2023-02-25T15:41:44.674Z,101161.66
2023-02-25T15:44:35.931Z,101171.53
2023-02-25T15:47:20.093Z,101171.53
2023-02-25T15:49:49.457Z,101176.97
2023-02-25T15:52:55.707Z,101176.22
2023-02-25T15:55:39.370Z,101185.09
2023-02-25T15:58:44.985Z,101179.84
2023-02-25T16:01:30.786Z,101193.47
2023-02-25T16:03:58.714Z,101190.19
2023-02-25T16:06:32.842Z,101192.84
2023-02-25T16:09:07.926Z,101200.81
2023-02-25T16:11:38.781Z,101203.44
2023-02-25T16:14:09.248Z,101204.56
2023-02-25T16:16:40.921Z,101213.50
2023-02-25T16:19:10.709Z,101214.44
2023-02-25T16:21:44.493Z,101230.34
2023-02-25T16:24:14.410Z,101230.47
2023-02-25T16:26:45.867Z,101240.03
2023-02-25T16:29:24.787Z,101242.66
2023-02-25T16:31:58.053Z,101252.31
2023-02-25T16:34:30.356Z,101253.31
2023-02-25T16:37:07.763Z,101255.50
2023-02-25T16:39:37.970Z,101239.41
2023-02-25T16:42:07.044Z,101257.69
2023-02-25T16:44:39.139Z,101262.16
2023-02-25T16:47:07.650Z,101273.72
2023-02-25T16:49:39.151Z,101272.94
2023-02-25T16:52:07.189Z,101276.72
2023-02-25T16:54:38.855Z,101272.31
2023-02-25T16:57:09.460Z,101275.03
2023-02-25T16:59:38.683Z,101290.84
2023-02-25T17:02:23.918Z,101295.28
2023-02-25T17:04:53.150Z,101298.69
2023-02-25T17:07:25.399Z,101296.22
2023-02-25T17:09:56.706Z,101301.63
2023-02-25T17:12:31.740Z,101306.94
2023-02-25T17:15:01.064Z,101301.72
2023-02-25T17:17:32.982Z,101303.53
2023-02-25T17:20:02.599Z,101310.50
2023-02-25T17:22:32.511Z,101311.34
2023-02-25T17:25:02.090Z,101320.13
2023-02-25T17:27:29.778Z,101318.34
2023-02-25T17:29:57.668Z,101318.56
2023-02-25T17:32:28.172Z,101323.97
2023-02-25T17:48:30.896Z,101330.06
2023-02-25T17:51:00.740Z,101338.34
2023-02-25T17:53:39.147Z,101337.50
2023-02-25T17:56:12.534Z,101338.72
2023-02-25T17:58:40.274Z,101345.28
2023-02-25T18:01:10.113Z,101346.81
2023-02-25T18:03:46.701Z,101348.38
2023-02-25T18:06:33.337Z,101348.22
2023-02-25T18:09:02.865Z,101349.03
2023-02-25T18:11:32.455Z,101358.59
2023-02-25T18:14:02.258Z,101356.75
2023-02-25T18:16:37.805Z,101356.75
2023-02-25T18:19:28.754Z,101359.34
2023-02-25T18:21:56.495Z,101359.34
2023-02-25T18:24:30.809Z,101358.66
2023-02-25T18:27:08.066Z,101366.53
2023-02-25T18:29:36.259Z,101366.53
2023-02-25T18:32:05.336Z,101368.31
2023-02-25T18:34:34.565Z,101382.41
2023-02-25T18:37:02.608Z,101381.63
2023-02-25T18:39:30.331Z,101383.34
2023-02-25T18:41:58.009Z,101386.72
2023-02-25T18:44:25.690Z,101387.66
2023-02-25T18:46:53.399Z,101381.63
2023-02-25T18:49:21.169Z,101390.41
2023-02-25T18:51:52.270Z,101388.84
2023-02-25T18:54:19.939Z,101386.38
2023-02-25T18:56:48.192Z,101385.47
2023-02-25T18:59:15.903Z,101394.25
2023-02-25T19:01:44.034Z,101390.06
2023-02-25T19:04:16.010Z,101397.22
2023-02-25T19:06:43.789Z,101403.34
2023-02-25T19:09:12.919Z,101400.88
2023-02-25T19:11:41.006Z,101394.03
2023-02-25T19:14:08.846Z,101399.38
2023-02-25T19:16:36.716Z,101402.00
2023-02-25T19:19:06.525Z,101402.00
2023-02-25T19:21:34.172Z,101402.16
2023-02-25T19:24:01.921Z,101407.47
2023-02-25T19:26:31.012Z,101412.78
2023-02-25T19:28:58.753Z,101409.34
2023-02-25T19:31:26.451Z,101411.19
2023-02-25T19:33:54.207Z,101416.44
2023-02-25T19:36:22.308Z,101422.66
2023-02-25T19:38:50.494Z,101421.09
2023-02-25T19:41:18.204Z,101423.00
2023-02-25T19:43:47.296Z,101428.34
2023-02-25T19:46:17.282Z,101432.88
2023-02-25T19:48:45.128Z,101431.22
2023-02-25T19:51:12.816Z,101438.31
2023-02-25T19:53:41.804Z,101439.31
2023-02-25T19:56:09.640Z,101443.81
2023-02-25T19:58:37.344Z,101456.09
2023-02-25T20:01:10.557Z,101452.78
2023-02-25T20:03:38.357Z,101451.13
2023-02-25T20:06:07.799Z,101455.72
2023-02-25T20:08:36.448Z,101457.59
2023-02-25T20:11:04.423Z,101469.91
2023-02-25T20:13:32.096Z,101471.75
2023-02-25T20:16:03.275Z,101479.59
2023-02-25T20:18:32.464Z,101478.78
2023-02-25T20:21:00.209Z,101486.59
2023-02-25T20:23:28.212Z,101510.28
2023-02-25T20:26:03.965Z,101528.19
2023-02-25T20:28:31.689Z,101533.84
2023-02-25T20:31:04.835Z,101507.41
2023-02-25T20:33:34.786Z,101516.53
2023-02-25T20:36:03.500Z,101515.06
2023-02-25T20:38:33.677Z,101506.50
2023-02-25T20:41:01.591Z,101507.28
2023-02-25T20:43:29.476Z,101508.13
2023-02-25T20:45:57.970Z,101504.47
2023-02-25T20:48:28.405Z,101489.63
2023-02-25T20:50:58.108Z,101495.75
2023-02-25T20:53:26.442Z,101503.63
2023-02-25T20:55:55.441Z,101503.63
2023-02-25T20:58:23.240Z,101501.81
2023-02-25T21:00:51.027Z,101501.88
2023-02-25T21:03:18.753Z,101519.31
2023-02-25T21:05:46.476Z,101517.59
2023-02-25T21:08:15.711Z,101516.75
2023-02-25T21:10:44.228Z,101525.50
2023-02-25T21:13:11.974Z,101535.09
2023-02-25T21:15:40.180Z,101537.78
2023-02-25T21:18:08.039Z,101537.78
2023-02-25T21:20:35.687Z,101544.78
2023-02-25T21:23:03.509Z,101545.69
2023-02-25T21:25:34.666Z,101543.09
2023-02-25T21:28:02.424Z,101556.13
2023-02-25T21:30:30.264Z,101560.59
2023-02-25T21:32:58.883Z,101563.41
2023-02-25T21:35:26.624Z,101549.66
2023-02-25T21:37:54.408Z,101552.34
2023-02-25T21:40:22.293Z,101552.44
2023-02-25T21:42:51.428Z,101561.97
2023-02-25T21:45:19.148Z,101561.31
2023-02-25T21:47:47.243Z,101567.72
2023-02-25T21:50:14.967Z,101563.44
2023-02-25T21:52:42.724Z,101573.81
2023-02-25T21:55:11.214Z,101579.03
2023-02-25T21:57:39.488Z,101579.03
2023-02-25T22:00:11.322Z,101583.41
2023-02-25T22:02:39.135Z,101596.47
2023-02-25T22:05:08.840Z,101573.09
2023-02-25T22:07:38.944Z,101574.03
2023-02-25T22:10:08.836Z,101572.31
2023-02-25T22:12:39.477Z,101559.28
2023-02-25T22:15:09.876Z,101565.28
2023-02-25T22:17:37.926Z,101572.31
2023-02-25T22:20:06.243Z,101555.75
2023-02-25T22:22:33.999Z,101557.38
2023-02-25T22:25:03.404Z,101565.28
2023-02-25T22:27:31.637Z,101576.44
2023-02-25T22:29:59.383Z,101570.44
2023-02-25T22:32:28.507Z,101578.34
2023-02-25T22:34:56.102Z,101580.09
2023-02-25T22:37:23.840Z,101577.41
2023-02-25T22:39:51.546Z,101579.13
2023-02-25T22:42:19.208Z,101577.47
2023-02-25T22:44:46.940Z,101589.78
2023-02-25T22:47:14.635Z,101587.28
2023-02-25T22:49:45.645Z,101590.03
2023-02-25T22:52:13.332Z,101603.88
2023-02-25T22:54:41.265Z,101593.41
2023-02-25T22:57:09.295Z,101593.63
2023-02-25T22:59:37.007Z,101591.16
2023-02-25T23:02:04.790Z,101596.44
2023-02-25T23:04:32.841Z,101602.69
2023-02-25T23:07:02.122Z,101599.31
2023-02-25T23:09:29.906Z,101605.41
2023-02-25T23:11:57.591Z,101596.69
2023-02-25T23:14:25.265Z,101607.13
2023-02-25T23:16:57.159Z,101599.38
2023-02-25T23:19:24.883Z,101616.75
2023-02-25T23:21:52.617Z,101617.66
2023-02-25T23:24:22.868Z,101612.34
2023-02-25T23:26:53.620Z,101627.03
2023-02-25T23:29:21.467Z,101626.97
2023-02-25T23:31:50.774Z,101643.41
2023-02-25T23:34:20.858Z,101646.75
2023-02-25T23:36:48.585Z,101645.94
2023-02-25T23:39:17.272Z,101643.41
2023-02-25T23:44:14.685Z,101647.66
2023-02-25T23:46:45.031Z,101651.38
2023-02-25T23:49:14.672Z,101657.44
2023-02-25T23:51:43.404Z,101656.53
2023-02-25T23:54:14.298Z,101661.81
2023-02-25T23:56:42.057Z,101670.56
2023-02-25T23:59:11.440Z,101678.44
